createdAt,value
2022-08-23T00:02:28.686Z,22.81
2022-08-23T00:05:09.158Z,22.78
2022-08-23T00:07:38.838Z,22.77
2022-08-23T00:10:08.956Z,22.74
2022-08-23T00:12:36.854Z,22.70
2022-08-23T00:15:08.840Z,22.66
2022-08-23T00:17:37.448Z,22.59
2022-08-23T00:20:11.603Z,22.54
2022-08-23T00:22:40.971Z,22.48
2022-08-23T00:25:11.662Z,22.43
2022-08-23T00:27:40.137Z,22.37
2022-08-23T00:30:12.383Z,22.30
2022-08-23T00:32:41.669Z,22.25
2022-08-23T00:35:11.724Z,22.18
2022-08-23T00:37:39.857Z,22.10
2022-08-23T00:40:10.597Z,22.07
2022-08-23T00:43:01.756Z,22.04
2022-08-23T00:45:55.445Z,21.98
2022-08-23T00:48:23.618Z,21.92
2022-08-23T00:50:57.439Z,21.86
2022-08-23T00:53:28.696Z,21.83
2022-08-23T00:56:01.074Z,21.79
2022-08-23T00:58:30.506Z,21.75
2022-08-23T01:01:02.013Z,21.71
2022-08-23T01:03:38.712Z,21.69
2022-08-23T01:06:12.718Z,21.65
2022-08-23T01:08:45.557Z,21.62
2022-08-23T01:11:17.903Z,21.62
2022-08-23T01:13:49.890Z,21.60
2022-08-23T01:16:25.323Z,21.55
2022-08-23T01:18:54.779Z,21.52
2022-08-23T01:21:28.480Z,21.51
2022-08-23T01:24:01.648Z,21.48
2022-08-23T01:26:31.943Z,21.45
2022-08-23T01:28:59.712Z,21.41
2022-08-23T01:31:28.044Z,21.38
2022-08-23T01:34:00.002Z,21.30
2022-08-23T01:36:28.709Z,21.27
2022-08-23T01:38:57.926Z,21.26
2022-08-23T01:41:26.192Z,21.24
2022-08-23T01:43:54.233Z,21.19
2022-08-23T01:46:24.984Z,21.17
2022-08-23T01:48:55.202Z,21.14
2022-08-23T01:51:23.951Z,21.10
2022-08-23T01:53:51.883Z,21.08
2022-08-23T01:56:28.112Z,21.03
2022-08-23T01:59:08.139Z,20.91
2022-08-23T02:01:36.362Z,20.86
2022-08-23T02:04:05.447Z,20.81
2022-08-23T02:06:33.833Z,20.82
2022-08-23T02:09:03.671Z,20.82
2022-08-23T02:11:36.197Z,20.80
2022-08-23T02:14:05.528Z,20.80
2022-08-23T02:16:36.123Z,20.76
2022-08-23T02:19:06.610Z,20.71
2022-08-23T02:21:36.690Z,20.69
2022-08-23T02:24:06.954Z,20.67
2022-08-23T02:26:38.118Z,20.66
2022-08-23T02:29:06.562Z,20.65
2022-08-23T02:31:35.294Z,20.62
2022-08-23T02:34:03.458Z,20.61
2022-08-23T02:36:31.516Z,20.56
2022-08-23T02:38:59.327Z,20.46
2022-08-23T02:41:27.654Z,20.43
2022-08-23T02:43:56.762Z,20.41
2022-08-23T02:46:24.563Z,20.31
2022-08-23T02:48:52.967Z,20.23
2022-08-23T02:51:21.185Z,20.22
2022-08-23T02:53:48.982Z,20.24
2022-08-23T02:56:21.907Z,20.22
2022-08-23T02:58:54.496Z,20.20
2022-08-23T03:01:27.528Z,20.17
2022-08-23T03:03:56.217Z,20.16
2022-08-23T03:06:26.306Z,20.14
2022-08-23T03:08:55.238Z,20.14
2022-08-23T03:11:23.612Z,20.13
2022-08-23T03:13:52.345Z,20.02
2022-08-23T03:16:20.694Z,20.01
2022-08-23T03:18:50.567Z,19.99
2022-08-23T03:21:19.031Z,19.97
2022-08-23T03:23:47.093Z,19.96
2022-08-23T03:26:16.675Z,19.96
2022-08-23T03:28:45.378Z,19.94
2022-08-23T03:31:13.925Z,19.92
2022-08-23T03:33:42.158Z,19.88
2022-08-23T03:36:13.098Z,19.87
2022-08-23T03:38:42.366Z,19.83
2022-08-23T03:41:10.653Z,19.80
2022-08-23T03:43:39.802Z,19.78
2022-08-23T03:46:08.663Z,19.76
2022-08-23T03:48:37.576Z,19.72
2022-08-23T03:51:05.607Z,19.67
2022-08-23T03:53:34.699Z,19.64
2022-08-23T03:56:02.515Z,19.62
2022-08-23T03:58:30.236Z,19.61
2022-08-23T04:00:58.484Z,19.60
2022-08-23T04:03:26.712Z,19.57
2022-08-23T04:05:54.529Z,19.56
2022-08-23T04:08:28.064Z,19.53
2022-08-23T04:11:03.035Z,19.51
2022-08-23T04:13:31.026Z,19.51
2022-08-23T04:15:59.241Z,19.48
2022-08-23T04:18:26.963Z,19.47
2022-08-23T04:20:54.775Z,19.46
2022-08-23T04:23:22.565Z,19.41
2022-08-23T04:25:50.452Z,19.40
2022-08-23T04:28:19.586Z,19.38
2022-08-23T04:30:47.321Z,19.38
2022-08-23T04:33:17.852Z,19.39
2022-08-23T04:35:46.333Z,19.39
2022-08-23T04:38:18.322Z,19.39
2022-08-23T04:41:11.378Z,19.37
2022-08-23T04:43:40.945Z,19.36
2022-08-23T04:46:10.178Z,19.38
2022-08-23T04:48:38.179Z,19.42
2022-08-23T04:51:06.021Z,19.43
2022-08-23T04:53:35.314Z,19.42
2022-08-23T04:56:04.161Z,19.44
2022-08-23T04:58:32.749Z,19.46
2022-08-23T05:01:04.871Z,19.51
2022-08-23T05:03:32.998Z,19.52
2022-08-23T05:06:01.192Z,19.54
2022-08-23T05:08:29.017Z,19.57
2022-08-23T05:10:56.782Z,19.61
2022-08-23T05:13:24.569Z,19.63
2022-08-23T05:15:52.605Z,19.68
2022-08-23T05:18:21.708Z,19.75
2022-08-23T05:20:52.474Z,19.79
2022-08-23T05:23:20.262Z,19.82
2022-08-23T05:25:53.138Z,19.87
2022-08-23T05:28:23.302Z,19.91
2022-08-23T05:31:00.620Z,19.96
2022-08-23T05:33:32.582Z,20.03
2022-08-23T05:36:01.786Z,20.07
2022-08-23T05:38:30.017Z,20.12
2022-08-23T05:41:01.968Z,20.18
2022-08-23T05:43:33.358Z,20.25
2022-08-23T05:46:03.767Z,20.35
2022-08-23T05:48:33.948Z,20.46
2022-08-23T05:51:10.916Z,20.56
2022-08-23T05:53:39.278Z,20.67
2022-08-23T05:56:15.372Z,20.74
2022-08-23T05:58:43.984Z,20.84
2022-08-23T06:01:13.449Z,20.93
2022-08-23T06:03:42.716Z,21.01
2022-08-23T06:06:12.886Z,21.11
2022-08-23T06:08:41.428Z,21.18
2022-08-23T06:11:12.242Z,21.27
2022-08-23T06:13:41.879Z,21.36
2022-08-23T06:16:14.956Z,21.45
2022-08-23T06:18:44.961Z,21.52
2022-08-23T06:21:15.765Z,21.59
2022-08-23T06:23:44.359Z,21.67
2022-08-23T06:26:13.477Z,21.74
2022-08-23T06:28:51.005Z,21.82
2022-08-23T06:31:40.793Z,21.89
2022-08-23T06:34:12.598Z,21.98
2022-08-23T06:36:40.905Z,22.05
2022-08-23T06:39:11.670Z,22.13
2022-08-23T06:41:39.731Z,22.21
2022-08-23T06:44:08.166Z,22.29
2022-08-23T06:46:38.447Z,22.38
2022-08-23T06:49:09.341Z,22.47
2022-08-23T06:51:39.580Z,22.55
2022-08-23T06:54:11.015Z,22.59
2022-08-23T06:56:41.228Z,22.67
2022-08-23T06:59:09.725Z,22.73
2022-08-23T07:01:46.227Z,22.81
2022-08-23T07:04:18.722Z,22.88
2022-08-23T07:06:47.445Z,22.97
2022-08-23T07:09:16.130Z,23.06
2022-08-23T07:11:43.890Z,23.13
2022-08-23T07:14:14.064Z,23.22
2022-08-23T07:16:44.570Z,23.32
2022-08-23T07:19:13.315Z,23.41
2022-08-23T07:21:43.423Z,23.45
2022-08-23T07:24:14.723Z,23.51
2022-08-23T07:26:45.344Z,23.58
2022-08-23T07:29:14.338Z,23.63
2022-08-23T07:31:44.607Z,23.67
2022-08-23T07:34:12.854Z,23.71
2022-08-23T07:36:44.454Z,23.73
2022-08-23T07:39:12.478Z,23.77
2022-08-23T07:41:41.543Z,23.83
2022-08-23T07:44:11.718Z,23.93
2022-08-23T07:46:43.480Z,24.00
2022-08-23T07:49:13.189Z,24.11
2022-08-23T07:51:43.962Z,24.18
2022-08-23T07:54:12.950Z,24.24
2022-08-23T07:56:41.545Z,24.30
2022-08-23T07:59:09.967Z,24.33
2022-08-23T08:01:38.018Z,24.36
2022-08-23T08:04:07.103Z,24.44
2022-08-23T08:06:39.317Z,24.51
2022-08-23T08:09:09.838Z,24.59
2022-08-23T08:11:37.878Z,24.66
2022-08-23T08:14:09.077Z,24.73
2022-08-23T08:16:38.727Z,24.80
2022-08-23T08:19:09.154Z,24.89
2022-08-23T08:21:38.848Z,24.97
2022-08-23T08:24:13.000Z,25.04
2022-08-23T08:26:41.092Z,25.09
2022-08-23T08:29:11.916Z,25.14
2022-08-23T08:31:40.805Z,25.18
2022-08-23T08:34:09.106Z,25.21
2022-08-23T08:36:39.160Z,25.26
2022-08-23T08:39:10.447Z,25.32
2022-08-23T08:42:04.093Z,25.35
2022-08-23T08:44:38.960Z,25.44
2022-08-23T08:47:11.543Z,25.52
2022-08-23T08:49:45.029Z,25.62
2022-08-23T08:52:18.646Z,25.67
2022-08-23T08:54:49.771Z,25.69
2022-08-23T08:57:27.800Z,25.76
2022-08-23T09:00:02.632Z,25.84
2022-08-23T09:02:34.993Z,25.90
2022-08-23T09:05:06.962Z,25.98
2022-08-23T09:07:45.515Z,26.01
2022-08-23T09:10:54.470Z,26.07
2022-08-23T09:13:46.595Z,26.12
2022-08-23T09:16:28.803Z,26.19
2022-08-23T09:18:56.927Z,26.25
2022-08-23T09:21:28.523Z,26.30
2022-08-23T09:24:00.983Z,26.38
2022-08-23T09:26:31.614Z,26.47
2022-08-23T09:29:03.110Z,26.55
2022-08-23T09:31:40.450Z,26.63
2022-08-23T09:34:08.677Z,26.66
2022-08-23T09:36:38.754Z,26.74
2022-08-23T09:39:08.438Z,26.80
2022-08-23T09:41:38.947Z,26.85
2022-08-23T09:44:16.255Z,26.88
2022-08-23T09:46:45.951Z,26.96
2022-08-23T09:49:26.209Z,27.05
2022-08-23T09:51:56.565Z,27.14
2022-08-23T09:54:30.041Z,27.25
2022-08-23T09:57:00.897Z,27.32
2022-08-23T09:59:39.368Z,27.38
2022-08-23T10:02:17.045Z,27.43
2022-08-23T10:04:47.199Z,27.49
2022-08-23T10:07:27.136Z,27.55
2022-08-23T10:09:55.229Z,27.59
2022-08-23T10:12:23.835Z,27.68
2022-08-23T10:14:51.573Z,27.75
2022-08-23T10:17:34.242Z,27.82
2022-08-23T10:20:17.063Z,27.91
2022-08-23T10:22:50.502Z,27.96
2022-08-23T10:25:37.248Z,28.05
2022-08-23T10:28:42.178Z,28.10
2022-08-23T10:31:23.048Z,28.12
2022-08-23T10:34:01.715Z,28.11
2022-08-23T10:36:34.884Z,28.18
2022-08-23T10:39:08.092Z,28.25
2022-08-23T10:41:53.477Z,28.29
2022-08-23T10:44:29.184Z,28.32
2022-08-23T10:47:12.078Z,28.24
2022-08-23T10:49:42.835Z,28.31
2022-08-23T10:52:16.368Z,28.38
2022-08-23T10:54:59.410Z,28.48
2022-08-23T10:57:33.995Z,28.57
2022-08-23T11:00:03.857Z,28.60
2022-08-23T11:02:38.207Z,28.64
2022-08-23T11:05:18.738Z,28.69
2022-08-23T11:07:59.118Z,28.71
2022-08-23T11:10:32.821Z,28.78
2022-08-23T11:13:03.815Z,28.86
2022-08-23T11:15:44.805Z,28.94
2022-08-23T11:18:39.346Z,29.02
2022-08-23T11:21:11.863Z,29.06
2022-08-23T11:23:55.467Z,29.14
2022-08-23T11:27:06.659Z,29.18
2022-08-23T11:29:40.522Z,29.24
2022-08-23T11:32:47.120Z,29.24
2022-08-23T11:35:43.222Z,29.17
2022-08-23T11:38:12.075Z,29.15
2022-08-23T11:41:06.361Z,29.17
2022-08-23T11:43:37.718Z,29.23
2022-08-23T11:46:32.328Z,29.34
2022-08-23T11:49:29.137Z,29.45
2022-08-23T11:52:07.011Z,29.58
2022-08-23T11:54:48.302Z,29.64
2022-08-23T11:57:33.543Z,29.74
2022-08-23T12:00:17.424Z,29.71
2022-08-23T12:03:02.004Z,29.68
2022-08-23T12:06:03.096Z,29.66
2022-08-23T12:08:55.790Z,29.79
2022-08-23T12:11:25.776Z,29.85
2022-08-23T12:14:37.278Z,29.90
2022-08-23T12:17:07.242Z,29.94
2022-08-23T12:19:42.445Z,29.97
2022-08-23T12:22:15.585Z,30.01
2022-08-23T12:24:52.367Z,30.03
2022-08-23T12:27:28.191Z,30.08
2022-08-23T12:30:02.828Z,30.13
2022-08-23T12:32:38.872Z,30.17
2022-08-23T12:35:30.130Z,30.20
2022-08-23T12:38:21.832Z,30.25
2022-08-23T12:40:54.470Z,30.30
2022-08-23T12:43:25.201Z,30.34
2022-08-23T12:45:57.020Z,30.41
2022-08-23T12:48:26.674Z,30.46
2022-08-23T12:50:56.577Z,30.43
2022-08-23T12:53:29.152Z,30.41
2022-08-23T12:56:05.175Z,30.47
2022-08-23T12:58:35.716Z,30.55
2022-08-23T13:01:07.433Z,30.69
2022-08-23T13:03:39.776Z,30.73
2022-08-23T13:06:10.690Z,30.79
2022-08-23T13:08:41.926Z,30.81
2022-08-23T13:11:12.782Z,30.83
2022-08-23T13:13:43.050Z,30.80
2022-08-23T13:16:42.256Z,30.84
2022-08-23T13:19:18.100Z,30.83
2022-08-23T13:21:46.211Z,30.87
2022-08-23T13:24:38.404Z,30.84
2022-08-23T13:27:21.906Z,30.72
2022-08-23T13:29:55.622Z,30.60
2022-08-23T13:32:33.523Z,30.60
2022-08-23T13:35:26.768Z,30.67
2022-08-23T13:37:58.021Z,30.66
2022-08-23T13:40:27.498Z,30.62
2022-08-23T13:43:00.615Z,30.59
2022-08-23T13:45:31.264Z,30.51
2022-08-23T13:48:03.192Z,30.51
2022-08-23T13:50:33.094Z,30.65
2022-08-23T13:53:14.323Z,30.85
2022-08-23T13:55:48.129Z,31.07
2022-08-23T13:58:28.720Z,31.11
2022-08-23T14:00:59.005Z,31.15
2022-08-23T14:03:28.632Z,31.26
2022-08-23T14:05:56.422Z,31.43
2022-08-23T14:08:24.717Z,31.44
2022-08-23T14:10:52.903Z,31.38
2022-08-23T14:13:25.449Z,31.28
2022-08-23T14:15:56.358Z,31.18
2022-08-23T14:18:24.710Z,31.07
2022-08-23T14:20:53.230Z,30.99
2022-08-23T14:23:21.005Z,30.92
2022-08-23T14:25:50.252Z,30.85
2022-08-23T14:28:18.826Z,30.82
2022-08-23T14:30:48.231Z,30.81
2022-08-23T14:33:16.055Z,30.82
2022-08-23T14:35:45.019Z,30.78
2022-08-23T14:38:15.138Z,30.76
2022-08-23T14:40:51.262Z,30.85
2022-08-23T14:43:19.137Z,30.98
2022-08-23T14:45:48.665Z,31.07
2022-08-23T14:48:16.464Z,31.18
2022-08-23T14:50:45.138Z,31.29
2022-08-23T14:53:14.983Z,31.26
2022-08-23T14:55:42.743Z,31.13
2022-08-23T14:58:10.492Z,31.01
2022-08-23T15:00:38.925Z,30.91
2022-08-23T15:03:10.394Z,30.77
2022-08-23T15:05:38.390Z,30.76
2022-08-23T15:08:06.167Z,30.79
2022-08-23T15:10:50.092Z,30.91
2022-08-23T15:13:28.425Z,30.99
2022-08-23T15:16:01.460Z,30.96
2022-08-23T15:18:31.782Z,30.88
2022-08-23T15:20:59.956Z,30.91
2022-08-23T15:23:27.854Z,30.92
2022-08-23T15:25:57.774Z,30.97
2022-08-23T15:28:26.153Z,30.97
2022-08-23T15:30:54.074Z,30.96
2022-08-23T15:33:26.941Z,30.96
2022-08-23T15:35:57.141Z,30.95
2022-08-23T15:38:26.322Z,30.95
2022-08-23T15:40:55.703Z,30.95
2022-08-23T15:43:33.892Z,30.90
2022-08-23T15:46:06.054Z,30.91
2022-08-23T15:48:37.903Z,30.92
2022-08-23T15:51:07.242Z,30.85
2022-08-23T15:53:35.126Z,30.81
2022-08-23T15:56:05.719Z,30.76
2022-08-23T15:58:33.741Z,30.68
2022-08-23T16:01:01.594Z,30.64
2022-08-23T16:03:29.528Z,30.55
2022-08-23T16:05:57.815Z,30.50
2022-08-23T16:08:29.594Z,30.45
2022-08-23T16:10:57.431Z,30.42
2022-08-23T16:13:26.573Z,30.41
2022-08-23T16:15:54.506Z,30.39
2022-08-23T16:18:22.342Z,30.31
2022-08-23T16:20:50.266Z,30.26
2022-08-23T16:23:22.323Z,30.24
2022-08-23T16:25:51.632Z,30.23
2022-08-23T16:28:19.430Z,30.16
2022-08-23T16:30:47.209Z,30.12
2022-08-23T16:33:15.152Z,30.09
2022-08-23T16:35:42.870Z,30.06
2022-08-23T16:38:10.628Z,30.00
2022-08-23T16:40:38.352Z,30.00
2022-08-23T16:43:07.386Z,30.00
2022-08-23T16:45:35.108Z,29.99
2022-08-23T16:48:02.927Z,29.97
2022-08-23T16:50:32.851Z,29.93
2022-08-23T16:53:05.019Z,29.89
2022-08-23T16:55:35.133Z,29.84
2022-08-23T16:58:03.215Z,29.81
2022-08-23T17:00:32.822Z,29.75
2022-08-23T17:03:01.273Z,29.73
2022-08-23T17:05:29.752Z,29.70
2022-08-23T17:07:57.534Z,29.69
2022-08-23T17:10:25.484Z,29.68
2022-08-23T17:12:57.052Z,29.68
2022-08-23T17:15:27.368Z,29.64
2022-08-23T17:17:57.133Z,29.60
2022-08-23T17:20:27.160Z,29.55
2022-08-23T17:22:55.633Z,29.49
2022-08-23T17:25:24.179Z,29.45
2022-08-23T17:27:54.311Z,29.40
2022-08-23T17:30:24.905Z,29.38
2022-08-23T17:32:54.426Z,29.33
2022-08-23T17:35:26.719Z,29.30
2022-08-23T17:37:55.022Z,29.29
2022-08-23T17:40:31.596Z,29.25
2022-08-23T17:43:00.966Z,29.17
2022-08-23T17:45:29.691Z,29.12
2022-08-23T17:47:57.490Z,29.10
2022-08-23T17:50:26.724Z,29.06
2022-08-23T17:52:54.992Z,29.00
2022-08-23T17:55:22.880Z,28.96
2022-08-23T17:57:52.369Z,28.91
2022-08-23T18:00:24.006Z,28.85
2022-08-23T18:02:51.790Z,28.85
2022-08-23T18:05:19.843Z,28.81
2022-08-23T18:07:48.914Z,28.78
2022-08-23T18:10:16.661Z,28.74
2022-08-23T18:12:44.483Z,28.68
2022-08-23T18:15:12.828Z,28.63
2022-08-23T18:17:41.164Z,28.58
2022-08-23T18:20:13.752Z,28.54
2022-08-23T18:22:41.681Z,28.51
2022-08-23T18:25:13.334Z,28.44
2022-08-23T18:27:59.045Z,28.38
2022-08-23T18:30:27.038Z,28.33
2022-08-23T18:32:54.899Z,28.25
2022-08-23T18:35:25.766Z,28.19
2022-08-23T18:37:54.360Z,28.12
2022-08-23T18:40:23.649Z,28.02
2022-08-23T18:42:51.961Z,27.97
2022-08-23T18:45:20.079Z,27.89
2022-08-23T18:47:49.778Z,27.82
2022-08-23T18:50:18.826Z,27.75
2022-08-23T18:52:46.654Z,27.70
2022-08-23T18:55:16.096Z,27.63
2022-08-23T18:57:45.210Z,27.57
2022-08-23T19:00:14.025Z,27.51
2022-08-23T19:02:41.834Z,27.45
2022-08-23T19:05:10.208Z,27.41
2022-08-23T19:07:37.906Z,27.34
2022-08-23T19:10:06.475Z,27.27
2022-08-23T19:12:34.318Z,27.22
2022-08-23T19:15:03.413Z,27.16
2022-08-23T19:17:31.116Z,27.11
2022-08-23T19:19:59.653Z,27.04
2022-08-23T19:22:27.523Z,26.98
2022-08-23T19:24:55.862Z,26.93
2022-08-23T19:27:23.538Z,26.87
2022-08-23T19:29:51.362Z,26.81
2022-08-23T19:32:20.663Z,26.77
2022-08-23T19:34:48.583Z,26.73
2022-08-23T19:37:20.672Z,26.68
2022-08-23T19:39:52.076Z,26.63
2022-08-23T19:42:20.830Z,26.57
2022-08-23T19:44:49.550Z,26.51
2022-08-23T19:47:19.841Z,26.45
2022-08-23T19:49:51.032Z,26.42
2022-08-23T19:52:18.833Z,26.38
2022-08-23T19:54:46.573Z,26.35
2022-08-23T19:57:14.566Z,26.30
2022-08-23T19:59:42.567Z,26.24
2022-08-23T20:02:13.028Z,26.19
2022-08-23T20:04:41.007Z,26.14
2022-08-23T20:07:10.111Z,26.10
2022-08-23T20:09:37.985Z,26.05
2022-08-23T20:12:06.104Z,26.02
2022-08-23T20:14:34.241Z,25.94
2022-08-23T20:17:04.410Z,25.87
2022-08-23T20:19:32.286Z,25.85
2022-08-23T20:22:20.268Z,25.81
2022-08-23T20:24:52.204Z,25.75
2022-08-23T20:27:25.365Z,25.70
2022-08-23T20:29:58.904Z,25.67
2022-08-23T20:32:26.843Z,25.61
2022-08-23T20:34:54.658Z,25.58
2022-08-23T20:37:22.609Z,25.51
2022-08-23T20:39:52.270Z,25.46
2022-08-23T20:42:20.325Z,25.45
2022-08-23T20:44:48.278Z,25.43
2022-08-23T20:47:16.100Z,25.42
2022-08-23T20:49:44.153Z,25.39
2022-08-23T20:52:11.983Z,25.36
2022-08-23T20:54:40.156Z,25.35
2022-08-23T20:57:09.283Z,25.31
2022-08-23T20:59:40.942Z,25.28
2022-08-23T21:02:11.705Z,25.26
2022-08-23T21:04:40.251Z,25.22
2022-08-23T21:07:09.277Z,25.16
2022-08-23T21:09:37.162Z,25.10
2022-08-23T21:12:06.023Z,25.07
2022-08-23T21:14:35.279Z,25.00
2022-08-23T21:17:03.074Z,24.99
2022-08-23T21:19:31.308Z,24.95
2022-08-23T21:21:59.383Z,24.92
2022-08-23T21:24:27.255Z,24.88
2022-08-23T21:26:54.969Z,24.85
2022-08-23T21:29:22.847Z,24.80
2022-08-23T21:31:51.971Z,24.76
2022-08-23T21:34:19.822Z,24.72
2022-08-23T21:36:47.684Z,24.69
2022-08-23T21:39:15.407Z,24.59
2022-08-23T21:41:44.768Z,24.56
2022-08-23T21:44:15.273Z,24.47
2022-08-23T21:46:43.273Z,24.46
2022-08-23T21:49:12.996Z,24.44
2022-08-23T21:51:41.498Z,24.42
2022-08-23T21:54:10.652Z,24.38
2022-08-23T21:56:39.476Z,24.34
2022-08-23T21:59:10.013Z,24.28
2022-08-23T22:01:38.054Z,24.24
2022-08-23T22:04:07.941Z,24.21
2022-08-23T22:06:38.682Z,24.18
2022-08-23T22:09:08.269Z,24.12
2022-08-23T22:11:40.579Z,24.10
2022-08-23T22:14:08.803Z,24.02
2022-08-23T22:16:37.226Z,23.99
2022-08-23T22:19:05.411Z,23.94
2022-08-23T22:21:35.409Z,23.91
2022-08-23T22:24:05.652Z,23.89
2022-08-23T22:26:33.503Z,23.84
2022-08-23T22:29:01.313Z,23.82
2022-08-23T22:31:29.412Z,23.77
2022-08-23T22:33:57.414Z,23.74
2022-08-23T22:36:25.501Z,23.71
2022-08-23T22:38:53.356Z,23.70
2022-08-23T22:41:27.129Z,23.65
2022-08-23T22:43:54.951Z,23.64
2022-08-23T22:46:23.629Z,23.62
2022-08-23T22:48:51.471Z,23.61
2022-08-23T22:51:21.080Z,23.60
2022-08-23T22:53:51.312Z,23.57
2022-08-23T22:56:21.703Z,23.49
2022-08-23T22:58:52.733Z,23.49
2022-08-23T23:01:23.217Z,23.48
2022-08-23T23:03:52.925Z,23.42
2022-08-23T23:06:21.288Z,23.42
2022-08-23T23:08:49.448Z,23.38
2022-08-23T23:11:18.351Z,23.35
2022-08-23T23:13:46.300Z,23.29
2022-08-23T23:16:18.308Z,23.27
2022-08-23T23:19:08.054Z,23.25
2022-08-23T23:21:36.303Z,23.24
2022-08-23T23:24:04.896Z,23.21
2022-08-23T23:26:32.832Z,23.20
2022-08-23T23:29:00.730Z,23.17
2022-08-23T23:31:29.995Z,23.17
2022-08-23T23:33:58.243Z,23.14
2022-08-23T23:36:26.035Z,23.13
2022-08-23T23:38:54.142Z,23.10
2022-08-23T23:41:22.031Z,23.06
2022-08-23T23:43:50.062Z,23.04
2022-08-23T23:46:20.969Z,23.01
2022-08-23T23:48:51.258Z,22.97
2022-08-23T23:51:22.227Z,22.95
2022-08-23T23:53:50.330Z,22.92
2022-08-23T23:56:19.830Z,22.88
2022-08-23T23:58:48.779Z,22.81
